createdAt,value
2022-12-25T00:01:28.084Z,9.58
2022-12-25T00:03:57.585Z,9.76
2022-12-25T00:06:25.876Z,9.53
2022-12-25T00:08:54.851Z,9.30
2022-12-25T00:11:22.941Z,9.43
2022-12-25T00:13:50.627Z,9.59
2022-12-25T00:16:19.800Z,9.57
2022-12-25T00:18:47.975Z,9.67
2022-12-25T00:21:16.047Z,9.52
2022-12-25T00:23:43.973Z,9.55
2022-12-25T00:26:15.132Z,9.41
2022-12-25T00:28:43.010Z,9.34
2022-12-25T00:31:13.027Z,9.13
2022-12-25T00:33:42.662Z,9.32
2022-12-25T00:36:11.620Z,9.49
2022-12-25T00:38:40.832Z,9.48
2022-12-25T00:41:10.001Z,9.74
2022-12-25T00:43:39.370Z,9.90
2022-12-25T00:46:07.928Z,9.89
2022-12-25T00:48:37.002Z,9.89
2022-12-25T00:51:07.084Z,9.91
2022-12-25T00:53:34.731Z,9.71
2022-12-25T00:56:05.330Z,9.76
2022-12-25T00:58:34.772Z,9.41
2022-12-25T01:01:04.746Z,9.53
2022-12-25T01:03:32.441Z,9.25
2022-12-25T01:06:01.967Z,9.01
2022-12-25T01:08:31.451Z,9.55
2022-12-25T01:11:01.377Z,9.63
2022-12-25T01:13:29.865Z,9.64
2022-12-25T01:15:57.910Z,9.57
2022-12-25T01:18:26.925Z,9.00
2022-12-25T01:20:54.606Z,9.29
2022-12-25T01:23:22.444Z,9.41
2022-12-25T01:25:50.051Z,9.45
2022-12-25T01:28:17.694Z,9.36
2022-12-25T01:30:49.541Z,9.43
2022-12-25T01:33:17.071Z,9.50
2022-12-25T01:35:46.038Z,9.18
2022-12-25T01:38:13.815Z,8.97
2022-12-25T01:40:41.650Z,9.12
2022-12-25T01:43:22.521Z,9.30
2022-12-25T01:46:07.258Z,9.54
2022-12-25T01:48:38.541Z,9.51
2022-12-25T01:51:18.831Z,9.34
2022-12-25T01:53:46.470Z,9.33
2022-12-25T01:56:14.258Z,9.12
2022-12-25T01:58:43.027Z,9.12
2022-12-25T02:01:10.718Z,9.15
2022-12-25T02:03:39.973Z,9.19
2022-12-25T02:06:09.373Z,9.16
2022-12-25T02:08:37.620Z,8.99
2022-12-25T02:11:05.537Z,9.04
2022-12-25T02:13:33.206Z,8.83
2022-12-25T02:16:10.608Z,9.18
2022-12-25T02:18:44.869Z,9.15
2022-12-25T02:21:43.347Z,8.96
2022-12-25T02:24:26.594Z,9.24
2022-12-25T02:27:08.069Z,9.36
2022-12-25T02:29:48.811Z,9.42
2022-12-25T02:32:23.724Z,9.38
2022-12-25T02:34:56.727Z,9.13
2022-12-25T02:37:29.159Z,9.01
2022-12-25T02:40:02.000Z,8.97
2022-12-25T02:42:54.226Z,8.98
2022-12-25T02:45:49.188Z,9.14
2022-12-25T02:48:37.807Z,9.16
2022-12-25T02:51:28.361Z,9.15
2022-12-25T02:54:16.234Z,9.10
2022-12-25T02:57:04.378Z,9.01
2022-12-25T02:59:51.808Z,9.01
2022-12-25T03:02:40.281Z,9.01
2022-12-25T03:05:29.361Z,8.97
2022-12-25T03:07:59.807Z,8.91
2022-12-25T03:10:47.151Z,8.59
2022-12-25T03:13:20.118Z,8.68
2022-12-25T03:16:05.766Z,8.52
2022-12-25T03:18:36.286Z,8.43
2022-12-25T03:21:21.580Z,8.45
2022-12-25T03:24:18.195Z,8.44
2022-12-25T03:26:58.261Z,8.38
2022-12-25T03:29:45.692Z,8.20
2022-12-25T03:32:23.704Z,8.25
2022-12-25T03:35:21.326Z,8.34
2022-12-25T03:38:21.834Z,8.37
2022-12-25T03:41:19.321Z,8.37
2022-12-25T03:44:10.420Z,8.34
2022-12-25T03:47:02.930Z,8.32
2022-12-25T03:49:56.894Z,8.48
2022-12-25T03:52:47.324Z,8.72
2022-12-25T03:55:34.559Z,8.69
2022-12-25T03:58:16.089Z,8.82
2022-12-25T04:01:01.117Z,8.84
2022-12-25T04:03:46.600Z,8.74
2022-12-25T04:06:31.790Z,8.92
2022-12-25T04:09:18.794Z,8.95
2022-12-25T04:12:04.162Z,8.86
2022-12-25T04:14:49.436Z,8.98
2022-12-25T04:17:34.578Z,9.01
2022-12-25T04:20:19.995Z,9.16
2022-12-25T04:23:05.700Z,9.15
2022-12-25T04:25:52.094Z,9.10
2022-12-25T04:28:37.735Z,9.27
2022-12-25T04:31:23.428Z,9.14
2022-12-25T04:34:08.654Z,9.23
2022-12-25T04:36:36.220Z,9.17
2022-12-25T04:39:04.188Z,9.10
2022-12-25T04:41:33.136Z,8.64
2022-12-25T04:44:00.935Z,8.99
2022-12-25T04:46:29.022Z,9.10
2022-12-25T04:48:56.715Z,9.09
2022-12-25T04:51:26.726Z,9.41
2022-12-25T04:53:54.891Z,9.44
2022-12-25T04:56:22.833Z,9.40
2022-12-25T04:58:51.778Z,9.52
2022-12-25T05:01:19.477Z,9.55
2022-12-25T05:03:47.266Z,9.42
2022-12-25T05:06:14.983Z,9.48
2022-12-25T05:08:42.599Z,9.45
2022-12-25T05:11:12.529Z,9.46
2022-12-25T05:13:40.631Z,9.32
2022-12-25T05:16:12.804Z,9.41
2022-12-25T05:18:40.642Z,9.40
2022-12-25T05:21:11.064Z,9.38
2022-12-25T05:23:39.130Z,9.39
2022-12-25T05:26:07.523Z,9.37
2022-12-25T05:28:35.206Z,9.17
2022-12-25T05:31:02.892Z,9.22
2022-12-25T05:33:31.797Z,9.24
2022-12-25T05:35:59.824Z,9.29
2022-12-25T05:38:27.533Z,9.25
2022-12-25T05:40:55.145Z,9.24
2022-12-25T05:43:23.940Z,9.28
2022-12-25T05:45:51.762Z,9.33
2022-12-25T05:48:19.348Z,9.37
2022-12-25T05:50:48.396Z,9.49
2022-12-25T05:53:17.091Z,9.42
2022-12-25T05:55:44.843Z,9.44
2022-12-25T05:58:13.537Z,9.55
2022-12-25T06:00:41.902Z,9.55
2022-12-25T06:03:09.514Z,9.54
2022-12-25T06:05:39.566Z,9.45
2022-12-25T06:08:08.819Z,9.59
2022-12-25T06:10:37.345Z,9.77
2022-12-25T06:13:04.993Z,9.72
2022-12-25T06:15:32.680Z,9.55
2022-12-25T06:18:01.606Z,9.63
2022-12-25T06:20:29.320Z,9.67
2022-12-25T06:22:56.989Z,9.69
2022-12-25T06:25:25.926Z,9.76
2022-12-25T06:27:53.533Z,9.79
2022-12-25T06:30:21.268Z,9.70
2022-12-25T06:32:48.872Z,9.82
2022-12-25T06:35:16.841Z,9.59
2022-12-25T06:37:44.582Z,9.53
2022-12-25T06:40:13.816Z,9.83
2022-12-25T06:42:42.810Z,9.67
2022-12-25T06:45:11.639Z,9.86
2022-12-25T06:47:39.452Z,9.89
2022-12-25T06:50:08.322Z,9.82
2022-12-25T06:52:35.998Z,9.93
2022-12-25T06:55:03.646Z,9.80
2022-12-25T06:57:31.269Z,10.11
2022-12-25T07:00:00.282Z,10.18
2022-12-25T07:02:28.303Z,9.94
2022-12-25T07:04:56.167Z,9.87
2022-12-25T07:07:23.838Z,9.82
2022-12-25T07:09:51.447Z,9.24
2022-12-25T07:12:21.515Z,9.39
2022-12-25T07:14:50.052Z,9.64
2022-12-25T07:17:20.690Z,9.90
2022-12-25T07:19:48.565Z,9.58
2022-12-25T07:22:17.107Z,9.21
2022-12-25T07:24:44.789Z,9.33
2022-12-25T07:27:12.524Z,9.08
2022-12-25T07:29:40.198Z,8.82
2022-12-25T07:32:08.151Z,9.32
2022-12-25T07:34:37.187Z,9.24
2022-12-25T07:37:05.025Z,9.22
2022-12-25T07:39:34.038Z,9.26
2022-12-25T07:42:01.712Z,8.97
2022-12-25T07:44:29.310Z,9.31
2022-12-25T07:46:56.874Z,9.66
2022-12-25T07:49:24.569Z,9.61
2022-12-25T07:51:53.499Z,9.46
2022-12-25T07:54:21.142Z,9.47
2022-12-25T07:56:51.608Z,9.04
2022-12-25T07:59:19.529Z,9.54
2022-12-25T08:01:47.621Z,9.39
2022-12-25T08:04:15.470Z,9.49
2022-12-25T08:06:43.347Z,9.56
2022-12-25T08:09:13.939Z,9.71
2022-12-25T08:11:46.350Z,9.28
2022-12-25T08:14:14.568Z,9.70
2022-12-25T08:16:42.408Z,9.71
2022-12-25T08:19:10.407Z,9.70
2022-12-25T08:21:38.496Z,10.02
2022-12-25T08:24:06.430Z,10.00
2022-12-25T08:26:35.607Z,9.50
2022-12-25T08:29:03.417Z,9.63
2022-12-25T08:31:33.408Z,9.87
2022-12-25T08:34:03.687Z,9.94
2022-12-25T08:36:31.840Z,10.15
2022-12-25T08:39:03.032Z,9.91
2022-12-25T08:41:30.783Z,10.06
2022-12-25T08:43:59.948Z,10.14
2022-12-25T08:46:27.623Z,10.21
2022-12-25T08:48:56.591Z,10.01
2022-12-25T08:51:25.775Z,10.13
2022-12-25T08:53:58.765Z,10.07
2022-12-25T08:56:27.427Z,10.13
2022-12-25T08:58:55.226Z,9.99
2022-12-25T09:01:24.309Z,10.08
2022-12-25T09:03:51.987Z,10.18
2022-12-25T09:06:19.683Z,10.31
2022-12-25T09:08:49.561Z,10.44
2022-12-25T09:11:19.275Z,10.44
2022-12-25T09:13:47.560Z,10.61
2022-12-25T09:16:17.370Z,10.75
2022-12-25T09:18:46.609Z,10.80
2022-12-25T09:21:15.937Z,10.86
2022-12-25T09:23:46.214Z,10.86
2022-12-25T09:26:16.210Z,11.18
2022-12-25T09:28:50.547Z,11.34
2022-12-25T09:31:19.701Z,11.42
2022-12-25T09:33:49.008Z,11.46
2022-12-25T09:36:16.660Z,11.31
2022-12-25T09:38:44.550Z,11.34
2022-12-25T09:41:21.498Z,11.37
2022-12-25T09:43:52.442Z,11.49
2022-12-25T09:46:22.833Z,11.50
2022-12-25T09:49:03.667Z,11.63
2022-12-25T09:51:34.651Z,11.69
2022-12-25T09:54:07.868Z,11.55
2022-12-25T09:56:35.602Z,11.33
2022-12-25T09:59:03.214Z,11.47
2022-12-25T10:01:35.457Z,11.64
2022-12-25T10:04:21.371Z,11.58
2022-12-25T10:07:02.035Z,11.71
2022-12-25T10:09:43.980Z,11.86
2022-12-25T10:12:27.013Z,11.71
2022-12-25T10:15:08.343Z,11.48
2022-12-25T10:17:53.286Z,11.69
2022-12-25T10:20:36.773Z,11.70
2022-12-25T10:23:07.057Z,11.68
2022-12-25T10:25:37.674Z,11.93
2022-12-25T10:28:12.736Z,12.14
2022-12-25T10:30:43.377Z,12.02
2022-12-25T10:33:16.920Z,12.08
2022-12-25T10:35:46.923Z,11.92
2022-12-25T10:38:16.786Z,11.73
2022-12-25T10:40:57.394Z,11.97
2022-12-25T10:43:31.629Z,11.90
2022-12-25T10:46:00.449Z,11.74
2022-12-25T10:48:31.400Z,12.21
2022-12-25T10:51:00.332Z,12.14
2022-12-25T10:53:30.091Z,12.33
2022-12-25T10:56:00.383Z,12.43
2022-12-25T10:58:28.829Z,12.44
2022-12-25T11:00:59.619Z,12.30
2022-12-25T11:03:31.447Z,12.23
2022-12-25T11:06:01.033Z,12.37
2022-12-25T11:08:30.960Z,12.32
2022-12-25T11:11:05.909Z,12.45
2022-12-25T11:13:35.682Z,12.50
2022-12-25T11:16:09.265Z,12.29
2022-12-25T11:18:46.837Z,12.41
2022-12-25T11:21:23.133Z,12.42
2022-12-25T11:23:56.572Z,12.20
2022-12-25T11:26:24.431Z,12.33
2022-12-25T11:28:54.098Z,12.40
2022-12-25T11:31:24.026Z,12.64
2022-12-25T11:33:56.478Z,12.70
2022-12-25T11:36:33.618Z,12.73
2022-12-25T11:39:06.574Z,12.66
2022-12-25T11:41:36.900Z,12.66
2022-12-25T11:44:18.030Z,12.67
2022-12-25T11:46:50.307Z,12.70
2022-12-25T11:49:21.014Z,12.61
2022-12-25T11:51:53.144Z,12.55
2022-12-25T11:54:26.389Z,12.69
2022-12-25T11:56:54.510Z,12.90
2022-12-25T11:59:27.457Z,12.70
2022-12-25T12:02:01.014Z,12.79
2022-12-25T12:04:40.350Z,13.03
2022-12-25T12:07:17.513Z,13.28
2022-12-25T12:09:52.115Z,13.68
2022-12-25T12:12:24.628Z,13.87
2022-12-25T12:15:01.194Z,13.97
2022-12-25T12:17:28.721Z,14.18
2022-12-25T12:19:56.292Z,13.74
2022-12-25T12:22:27.710Z,13.95
2022-12-25T12:24:59.866Z,14.67
2022-12-25T12:27:34.087Z,15.19
2022-12-25T12:30:02.259Z,15.36
2022-12-25T12:32:40.282Z,15.28
2022-12-25T12:35:18.199Z,15.63
2022-12-25T12:37:50.762Z,15.60
2022-12-25T12:40:30.184Z,15.59
2022-12-25T12:42:58.009Z,15.90
2022-12-25T12:45:29.699Z,15.39
2022-12-25T12:47:58.753Z,15.22
2022-12-25T12:50:33.657Z,14.59
2022-12-25T12:53:18.545Z,14.31
2022-12-25T12:55:46.357Z,14.01
2022-12-25T12:58:28.441Z,14.11
2022-12-25T13:01:06.371Z,13.92
2022-12-25T13:03:53.232Z,14.12
2022-12-25T13:06:29.006Z,13.87
2022-12-25T13:09:14.031Z,13.74
2022-12-25T13:11:44.237Z,13.92
2022-12-25T13:14:17.173Z,14.22
2022-12-25T13:16:47.359Z,14.79
2022-12-25T13:19:17.836Z,15.37
2022-12-25T13:21:54.010Z,16.23
2022-12-25T13:24:25.300Z,17.46
2022-12-25T13:26:52.981Z,17.74
2022-12-25T13:29:29.479Z,18.54
2022-12-25T13:31:58.184Z,18.60
2022-12-25T13:34:31.622Z,17.77
2022-12-25T13:37:00.630Z,16.47
2022-12-25T13:39:29.728Z,15.95
2022-12-25T13:42:06.504Z,16.29
2022-12-25T13:44:43.836Z,16.03
2022-12-25T13:47:24.407Z,15.37
2022-12-25T13:49:53.699Z,15.20
2022-12-25T13:52:24.177Z,14.71
2022-12-25T13:54:59.563Z,14.61
2022-12-25T13:57:32.077Z,14.41
2022-12-25T14:00:00.675Z,13.93
2022-12-25T14:02:32.949Z,14.06
2022-12-25T14:05:00.606Z,14.02
2022-12-25T14:07:28.452Z,14.37
2022-12-25T14:10:00.898Z,14.92
2022-12-25T14:12:31.149Z,15.85
2022-12-25T14:15:00.097Z,16.91
2022-12-25T14:17:28.083Z,16.84
2022-12-25T14:20:08.043Z,16.01
2022-12-25T14:22:38.458Z,15.78
2022-12-25T14:25:16.167Z,14.69
2022-12-25T14:27:50.134Z,14.68
2022-12-25T14:30:18.625Z,14.86
2022-12-25T14:32:51.685Z,15.01
2022-12-25T14:35:23.506Z,14.60
2022-12-25T14:37:56.446Z,14.72
2022-12-25T14:40:30.641Z,14.53
2022-12-25T14:43:00.537Z,14.62
2022-12-25T14:45:32.223Z,14.57
2022-12-25T14:48:04.024Z,14.45
2022-12-25T14:50:36.361Z,14.06
2022-12-25T14:53:04.443Z,14.24
2022-12-25T14:55:33.421Z,14.21
2022-12-25T14:58:05.470Z,13.78
2022-12-25T15:00:35.688Z,13.65
2022-12-25T15:03:07.066Z,13.97
2022-12-25T15:05:36.794Z,13.91
2022-12-25T15:08:21.535Z,13.83
2022-12-25T15:11:00.291Z,13.75
2022-12-25T15:13:29.751Z,13.27
2022-12-25T15:16:01.865Z,13.41
2022-12-25T15:18:35.403Z,13.22
2022-12-25T15:21:03.541Z,12.70
2022-12-25T15:23:31.188Z,12.79
2022-12-25T15:26:00.103Z,12.89
2022-12-25T15:28:27.672Z,12.57
2022-12-25T15:30:55.493Z,12.62
2022-12-25T15:33:23.131Z,12.90
2022-12-25T15:35:50.789Z,12.41
2022-12-25T15:38:18.352Z,12.44
2022-12-25T15:40:46.048Z,12.39
2022-12-25T15:43:39.434Z,12.55
2022-12-25T15:46:04.156Z,12.44
2022-12-25T15:48:31.743Z,12.10
2022-12-25T15:50:59.363Z,12.25
2022-12-25T15:53:27.033Z,12.27
2022-12-25T15:55:54.728Z,11.87
2022-12-25T15:58:23.695Z,12.19
2022-12-25T16:00:51.583Z,12.25
2022-12-25T16:03:19.267Z,12.07
2022-12-25T16:05:46.969Z,11.59
2022-12-25T16:08:14.506Z,11.65
2022-12-25T16:10:42.102Z,11.61
2022-12-25T16:13:09.746Z,11.54
2022-12-25T16:15:38.869Z,11.46
2022-12-25T16:18:06.799Z,11.34
2022-12-25T16:20:35.596Z,11.20
2022-12-25T16:23:03.213Z,11.45
2022-12-25T16:25:30.913Z,11.44
2022-12-25T16:27:58.467Z,11.35
2022-12-25T16:30:26.116Z,11.45
2022-12-25T16:32:55.083Z,11.40
2022-12-25T16:35:22.665Z,11.32
2022-12-25T16:37:50.360Z,11.31
2022-12-25T16:40:18.016Z,11.21
2022-12-25T16:42:45.734Z,10.93
2022-12-25T16:45:13.951Z,11.08
2022-12-25T16:47:41.630Z,11.14
2022-12-25T16:50:11.387Z,10.97
2022-12-25T16:52:39.407Z,10.95
2022-12-25T16:55:07.357Z,10.99
2022-12-25T16:57:35.138Z,10.98
2022-12-25T17:00:02.813Z,10.85
2022-12-25T17:02:30.599Z,10.87
2022-12-25T17:04:58.446Z,10.84
2022-12-25T17:07:27.368Z,10.85
2022-12-25T17:09:56.897Z,11.04
2022-12-25T17:12:24.495Z,11.08
2022-12-25T17:14:53.115Z,11.31
2022-12-25T17:17:20.714Z,11.46
2022-12-25T17:19:48.363Z,12.01
2022-12-25T17:22:15.987Z,12.27
2022-12-25T17:24:44.898Z,12.17
2022-12-25T17:27:12.440Z,12.15
2022-12-25T17:29:40.920Z,12.30
2022-12-25T17:32:08.968Z,12.31
2022-12-25T17:34:36.832Z,12.37
2022-12-25T17:37:04.527Z,12.37
2022-12-25T17:39:32.252Z,12.31
2022-12-25T17:42:01.177Z,12.34
2022-12-25T17:44:28.810Z,12.41
2022-12-25T17:46:56.436Z,12.39
2022-12-25T17:49:24.058Z,12.34
2022-12-25T17:51:51.689Z,12.39
2022-12-25T17:54:19.457Z,12.43
2022-12-25T17:56:47.063Z,12.37
2022-12-25T17:59:18.516Z,12.39
2022-12-25T18:01:49.127Z,12.34
2022-12-25T18:04:17.097Z,12.39
2022-12-25T18:06:44.745Z,12.36
2022-12-25T18:11:43.134Z,12.41
2022-12-25T18:14:14.095Z,12.31
2022-12-25T18:16:46.562Z,12.30
2022-12-25T18:19:17.601Z,12.26
2022-12-25T18:21:45.454Z,12.26
2022-12-25T18:24:13.010Z,12.20
2022-12-25T18:26:40.642Z,12.23
2022-12-25T18:29:08.265Z,12.20
2022-12-25T18:31:36.034Z,12.18
2022-12-25T18:34:05.069Z,12.15
2022-12-25T18:36:32.885Z,12.07
2022-12-25T18:39:00.524Z,12.09
2022-12-25T18:41:30.176Z,12.07
2022-12-25T18:43:58.211Z,12.10
2022-12-25T18:46:27.660Z,12.04
2022-12-25T18:48:56.275Z,11.98
2022-12-25T18:51:28.684Z,12.00
2022-12-25T18:54:01.587Z,12.05
2022-12-25T18:56:29.203Z,11.98
2022-12-25T18:58:56.825Z,11.97
2022-12-25T19:01:26.179Z,12.01
2022-12-25T19:04:00.200Z,12.02
2022-12-25T19:06:33.339Z,12.03
2022-12-25T19:09:05.562Z,12.01
2022-12-25T19:11:33.755Z,12.07
2022-12-25T19:14:01.367Z,12.09
2022-12-25T19:16:28.968Z,12.13
2022-12-25T19:18:57.565Z,12.12
2022-12-25T19:21:25.122Z,12.16
2022-12-25T19:23:55.506Z,12.15
2022-12-25T19:26:23.575Z,12.09
2022-12-25T19:28:51.108Z,12.10
2022-12-25T19:31:18.695Z,12.11
2022-12-25T19:33:46.266Z,12.11
2022-12-25T19:36:16.091Z,12.07
2022-12-25T19:38:44.337Z,12.03
2022-12-25T19:41:16.155Z,12.11
2022-12-25T19:43:45.506Z,12.02
2022-12-25T19:46:17.828Z,12.01
2022-12-25T19:48:45.782Z,12.03
2022-12-25T19:51:18.143Z,12.07
2022-12-25T19:53:46.199Z,11.95
2022-12-25T19:56:15.892Z,12.03
2022-12-25T19:58:43.825Z,11.94
2022-12-25T20:01:13.971Z,11.90
2022-12-25T20:03:46.293Z,11.87
2022-12-25T20:06:18.817Z,11.88
2022-12-25T20:08:46.792Z,12.02
2022-12-25T20:11:16.166Z,11.93
2022-12-25T20:13:43.787Z,11.87
2022-12-25T20:16:11.475Z,11.87
2022-12-25T20:18:39.661Z,11.75
2022-12-25T20:21:09.570Z,11.87
2022-12-25T20:23:37.446Z,11.82
2022-12-25T20:26:05.801Z,11.93
2022-12-25T20:28:36.973Z,11.86
2022-12-25T20:31:07.444Z,11.92
2022-12-25T20:33:38.120Z,11.91
2022-12-25T20:36:07.661Z,11.84
2022-12-25T20:38:36.921Z,11.94
2022-12-25T20:43:57.283Z,11.80
2022-12-25T20:46:25.530Z,11.78
2022-12-25T20:48:53.703Z,11.80
2022-12-25T20:51:23.555Z,11.77
2022-12-25T20:53:51.795Z,11.81
2022-12-25T20:56:21.252Z,11.88
2022-12-25T20:58:49.021Z,11.86
2022-12-25T21:01:19.681Z,11.85
2022-12-25T21:03:47.444Z,11.92
2022-12-25T21:06:15.156Z,11.88
2022-12-25T21:08:42.878Z,11.82
2022-12-25T21:11:11.784Z,11.86
2022-12-25T21:13:41.714Z,11.78
2022-12-25T21:16:11.824Z,11.90
2022-12-25T21:18:41.175Z,11.99
2022-12-25T21:21:09.907Z,11.95
2022-12-25T21:23:39.217Z,11.98
2022-12-25T21:26:11.901Z,12.00
2022-12-25T21:28:39.865Z,12.06
2022-12-25T21:31:08.685Z,12.02
2022-12-25T21:33:54.230Z,12.08
2022-12-25T21:36:26.950Z,12.07
2022-12-25T21:38:56.958Z,12.06
2022-12-25T21:41:25.180Z,12.00
2022-12-25T21:43:52.976Z,12.01
2022-12-25T21:46:20.923Z,11.97
2022-12-25T21:48:48.839Z,12.06
2022-12-25T21:51:36.739Z,12.12
2022-12-25T21:54:06.430Z,12.10
2022-12-25T21:56:41.329Z,12.12
2022-12-25T21:59:13.274Z,12.18
2022-12-25T22:01:41.088Z,12.17
2022-12-25T22:04:10.297Z,12.13
2022-12-25T22:06:55.406Z,12.13
2022-12-25T22:09:24.884Z,12.20
2022-12-25T22:12:10.662Z,12.08
2022-12-25T22:14:56.366Z,12.18
2022-12-25T22:17:43.548Z,12.38
2022-12-25T22:20:14.661Z,12.38
2022-12-25T22:22:42.475Z,12.48
2022-12-25T22:25:12.573Z,12.52
2022-12-25T22:27:41.683Z,12.55
2022-12-25T22:30:12.428Z,12.54
2022-12-25T22:32:40.471Z,12.56
2022-12-25T22:35:08.698Z,12.51
2022-12-25T22:37:36.827Z,12.56
2022-12-25T22:40:05.127Z,12.61
2022-12-25T22:42:34.248Z,12.60
2022-12-25T22:45:01.863Z,12.64
2022-12-25T22:47:29.412Z,12.64
2022-12-25T22:49:57.051Z,12.59
2022-12-25T22:52:24.776Z,12.54
2022-12-25T22:54:52.475Z,12.65
2022-12-25T22:57:20.143Z,12.72
2022-12-25T22:59:49.051Z,12.72
2022-12-25T23:02:16.817Z,12.69
2022-12-25T23:04:44.519Z,12.69
2022-12-25T23:07:14.237Z,12.61
2022-12-25T23:09:41.967Z,12.61
2022-12-25T23:12:30.271Z,12.64
2022-12-25T23:14:58.272Z,12.60
2022-12-25T23:17:43.923Z,12.67
2022-12-25T23:20:32.599Z,12.65
2022-12-25T23:23:18.107Z,12.70
2022-12-25T23:26:03.191Z,12.64
2022-12-25T23:28:48.507Z,12.76
2022-12-25T23:31:17.603Z,12.71
2022-12-25T23:33:45.370Z,12.69
2022-12-25T23:36:13.224Z,12.62
2022-12-25T23:38:40.935Z,12.65
2022-12-25T23:41:08.640Z,12.64
2022-12-25T23:43:36.267Z,12.64
2022-12-25T23:46:04.119Z,12.70
2022-12-25T23:48:33.142Z,12.70
2022-12-25T23:51:04.184Z,12.67
2022-12-25T23:53:31.949Z,12.68
2022-12-25T23:56:00.043Z,12.70
2022-12-25T23:58:29.755Z,12.71
